sensor_id;sensor_type;location;lat;lon;timestamp;P1;durP1;ratioP1;P2;durP2;ratioP2
45408;SDS011;31162;51.076;3.784;2023-07-13T00:00:12;5.65;;;2.33;;
45408;SDS011;31162;51.076;3.784;2023-07-13T00:02:41;7.82;;;2.22;;
45408;SDS011;31162;51.076;3.784;2023-07-13T00:05:07;12.75;;;2.97;;
45408;SDS011;31162;51.076;3.784;2023-07-13T00:07:34;6.07;;;2.40;;
45408;SDS011;31162;51.076;3.784;2023-07-13T00:10:00;7.63;;;2.45;;
45408;SDS011;31162;51.076;3.784;2023-07-13T00:12:28;6.03;;;2.38;;
45408;SDS011;31162;51.076;3.784;2023-07-13T00:17:25;10.95;;;2.92;;
45408;SDS011;31162;51.076;3.784;2023-07-13T00:19:52;8.60;;;2.10;;
45408;SDS011;31162;51.076;3.784;2023-07-13T00:22:18;7.70;;;2.40;;
45408;SDS011;31162;51.076;3.784;2023-07-13T00:24:44;8.35;;;2.90;;
45408;SDS011;31162;51.076;3.784;2023-07-13T00:27:11;9.95;;;3.33;;
45408;SDS011;31162;51.076;3.784;2023-07-13T00:29:37;6.75;;;2.28;;
45408;SDS011;31162;51.076;3.784;2023-07-13T00:32:04;8.77;;;3.45;;
45408;SDS011;31162;51.076;3.784;2023-07-13T00:34:30;12.20;;;2.53;;
45408;SDS011;31162;51.076;3.784;2023-07-13T00:36:56;8.38;;;2.95;;
45408;SDS011;31162;51.076;3.784;2023-07-13T00:39:22;9.35;;;3.13;;
45408;SDS011;31162;51.076;3.784;2023-07-13T00:41:49;9.65;;;3.25;;
45408;SDS011;31162;51.076;3.784;2023-07-13T00:44:15;7.78;;;2.90;;
45408;SDS011;31162;51.076;3.784;2023-07-13T00:46:42;13.18;;;3.10;;
45408;SDS011;31162;51.076;3.784;2023-07-13T00:49:08;10.27;;;3.20;;
45408;SDS011;31162;51.076;3.784;2023-07-13T00:52:20;11.10;;;2.90;;
45408;SDS011;31162;51.076;3.784;2023-07-13T00:56:58;13.23;;;3.88;;
45408;SDS011;31162;51.076;3.784;2023-07-13T00:59:26;11.00;;;3.30;;
45408;SDS011;31162;51.076;3.784;2023-07-13T01:01:52;9.73;;;2.90;;
45408;SDS011;31162;51.076;3.784;2023-07-13T01:04:18;9.93;;;3.60;;
45408;SDS011;31162;51.076;3.784;2023-07-13T01:06:45;10.82;;;3.05;;
45408;SDS011;31162;51.076;3.784;2023-07-13T01:09:12;9.57;;;2.70;;
45408;SDS011;31162;51.076;3.784;2023-07-13T01:11:40;17.42;;;4.93;;
45408;SDS011;31162;51.076;3.784;2023-07-13T01:14:06;11.20;;;3.00;;
45408;SDS011;31162;51.076;3.784;2023-07-13T01:16:33;11.23;;;3.38;;
45408;SDS011;31162;51.076;3.784;2023-07-13T01:19:00;9.25;;;3.10;;
45408;SDS011;31162;51.076;3.784;2023-07-13T01:21:28;15.07;;;3.45;;
45408;SDS011;31162;51.076;3.784;2023-07-13T01:23:57;10.95;;;3.80;;
45408;SDS011;31162;51.076;3.784;2023-07-13T01:26:23;11.65;;;3.90;;
45408;SDS011;31162;51.076;3.784;2023-07-13T01:28:49;15.38;;;4.10;;
45408;SDS011;31162;51.076;3.784;2023-07-13T01:31:14;12.43;;;3.05;;
45408;SDS011;31162;51.076;3.784;2023-07-13T01:33:40;11.98;;;3.53;;
45408;SDS011;31162;51.076;3.784;2023-07-13T01:36:07;14.07;;;3.75;;
45408;SDS011;31162;51.076;3.784;2023-07-13T01:38:34;12.85;;;3.65;;
45408;SDS011;31162;51.076;3.784;2023-07-13T01:41:00;15.13;;;4.13;;
45408;SDS011;31162;51.076;3.784;2023-07-13T01:43:26;11.38;;;4.15;;
45408;SDS011;31162;51.076;3.784;2023-07-13T01:45:52;10.02;;;3.85;;
45408;SDS011;31162;51.076;3.784;2023-07-13T01:48:18;14.40;;;4.03;;
45408;SDS011;31162;51.076;3.784;2023-07-13T01:50:45;10.25;;;4.00;;
45408;SDS011;31162;51.076;3.784;2023-07-13T01:53:10;13.07;;;3.58;;
45408;SDS011;31162;51.076;3.784;2023-07-13T01:55:36;11.93;;;3.58;;
45408;SDS011;31162;51.076;3.784;2023-07-13T01:58:02;11.68;;;3.90;;
45408;SDS011;31162;51.076;3.784;2023-07-13T02:00:29;8.82;;;3.42;;
45408;SDS011;31162;51.076;3.784;2023-07-13T02:02:54;15.00;;;4.20;;
45408;SDS011;31162;51.076;3.784;2023-07-13T02:05:20;13.60;;;4.50;;
45408;SDS011;31162;51.076;3.784;2023-07-13T02:07:49;13.73;;;3.55;;
45408;SDS011;31162;51.076;3.784;2023-07-13T02:10:14;10.75;;;4.28;;
45408;SDS011;31162;51.076;3.784;2023-07-13T02:12:40;11.32;;;4.10;;
45408;SDS011;31162;51.076;3.784;2023-07-13T02:15:07;11.13;;;4.25;;
45408;SDS011;31162;51.076;3.784;2023-07-13T02:17:33;14.00;;;4.57;;
45408;SDS011;31162;51.076;3.784;2023-07-13T02:20:00;10.50;;;4.70;;
45408;SDS011;31162;51.076;3.784;2023-07-13T02:22:27;13.80;;;4.07;;
45408;SDS011;31162;51.076;3.784;2023-07-13T02:24:53;14.98;;;4.88;;
45408;SDS011;31162;51.076;3.784;2023-07-13T02:27:19;13.75;;;3.72;;
45408;SDS011;31162;51.076;3.784;2023-07-13T02:29:44;13.98;;;4.22;;
45408;SDS011;31162;51.076;3.784;2023-07-13T02:32:10;13.13;;;4.07;;
45408;SDS011;31162;51.076;3.784;2023-07-13T02:34:36;16.42;;;4.63;;
45408;SDS011;31162;51.076;3.784;2023-07-13T02:37:02;14.65;;;4.97;;
45408;SDS011;31162;51.076;3.784;2023-07-13T02:39:27;15.02;;;4.25;;
45408;SDS011;31162;51.076;3.784;2023-07-13T02:41:53;10.95;;;3.80;;
45408;SDS011;31162;51.076;3.784;2023-07-13T02:44:19;15.05;;;4.60;;
45408;SDS011;31162;51.076;3.784;2023-07-13T02:46:44;12.70;;;4.20;;
45408;SDS011;31162;51.076;3.784;2023-07-13T02:49:10;15.75;;;4.53;;
45408;SDS011;31162;51.076;3.784;2023-07-13T02:51:35;13.68;;;4.60;;
45408;SDS011;31162;51.076;3.784;2023-07-13T02:54:02;15.45;;;4.30;;
45408;SDS011;31162;51.076;3.784;2023-07-13T02:56:29;16.63;;;4.70;;
45408;SDS011;31162;51.076;3.784;2023-07-13T02:58:56;12.60;;;4.35;;
45408;SDS011;31162;51.076;3.784;2023-07-13T03:01:22;14.27;;;4.32;;
45408;SDS011;31162;51.076;3.784;2023-07-13T03:03:49;10.52;;;4.00;;
45408;SDS011;31162;51.076;3.784;2023-07-13T03:06:15;12.98;;;4.35;;
45408;SDS011;31162;51.076;3.784;2023-07-13T03:08:42;17.02;;;4.43;;
45408;SDS011;31162;51.076;3.784;2023-07-13T03:11:13;13.65;;;4.50;;
45408;SDS011;31162;51.076;3.784;2023-07-13T03:16:06;18.38;;;4.40;;
45408;SDS011;31162;51.076;3.784;2023-07-13T03:18:33;11.43;;;4.40;;
45408;SDS011;31162;51.076;3.784;2023-07-13T03:20:59;15.23;;;4.70;;
45408;SDS011;31162;51.076;3.784;2023-07-13T03:23:24;13.95;;;4.40;;
45408;SDS011;31162;51.076;3.784;2023-07-13T03:26:00;16.08;;;5.25;;
45408;SDS011;31162;51.076;3.784;2023-07-13T03:28:27;17.35;;;5.35;;
45408;SDS011;31162;51.076;3.784;2023-07-13T03:31:03;15.98;;;5.03;;
45408;SDS011;31162;51.076;3.784;2023-07-13T03:33:33;15.30;;;4.55;;
45408;SDS011;31162;51.076;3.784;2023-07-13T03:35:59;20.27;;;4.55;;
45408;SDS011;31162;51.076;3.784;2023-07-13T03:38:25;11.57;;;4.40;;
45408;SDS011;31162;51.076;3.784;2023-07-13T03:40:51;16.13;;;4.55;;
45408;SDS011;31162;51.076;3.784;2023-07-13T03:43:17;17.80;;;4.75;;
45408;SDS011;31162;51.076;3.784;2023-07-13T03:45:43;16.00;;;4.53;;
45408;SDS011;31162;51.076;3.784;2023-07-13T03:48:09;18.65;;;4.97;;
45408;SDS011;31162;51.076;3.784;2023-07-13T03:50:34;13.45;;;5.07;;
45408;SDS011;31162;51.076;3.784;2023-07-13T03:53:00;14.88;;;4.63;;
45408;SDS011;31162;51.076;3.784;2023-07-13T03:55:26;15.82;;;4.30;;
45408;SDS011;31162;51.076;3.784;2023-07-13T03:57:54;17.95;;;4.55;;
45408;SDS011;31162;51.076;3.784;2023-07-13T04:00:24;18.00;;;4.55;;
45408;SDS011;31162;51.076;3.784;2023-07-13T04:02:50;13.50;;;4.18;;
45408;SDS011;31162;51.076;3.784;2023-07-13T04:05:16;17.80;;;4.63;;
45408;SDS011;31162;51.076;3.784;2023-07-13T04:07:41;12.32;;;4.30;;
45408;SDS011;31162;51.076;3.784;2023-07-13T04:10:07;13.05;;;4.40;;
45408;SDS011;31162;51.076;3.784;2023-07-13T04:12:33;18.30;;;4.22;;
45408;SDS011;31162;51.076;3.784;2023-07-13T04:14:59;14.27;;;4.35;;
45408;SDS011;31162;51.076;3.784;2023-07-13T04:17:25;12.50;;;4.93;;
45408;SDS011;31162;51.076;3.784;2023-07-13T04:19:50;16.02;;;4.53;;
45408;SDS011;31162;51.076;3.784;2023-07-13T04:22:16;14.52;;;4.25;;
45408;SDS011;31162;51.076;3.784;2023-07-13T04:24:42;14.20;;;4.38;;
45408;SDS011;31162;51.076;3.784;2023-07-13T04:27:08;17.35;;;4.53;;
45408;SDS011;31162;51.076;3.784;2023-07-13T04:29:33;25.55;;;16.13;;
45408;SDS011;31162;51.076;3.784;2023-07-13T04:31:59;11.57;;;4.25;;
45408;SDS011;31162;51.076;3.784;2023-07-13T04:34:25;17.83;;;4.70;;
45408;SDS011;31162;51.076;3.784;2023-07-13T04:36:50;14.25;;;4.50;;
45408;SDS011;31162;51.076;3.784;2023-07-13T04:39:17;10.77;;;4.00;;
45408;SDS011;31162;51.076;3.784;2023-07-13T04:41:42;12.50;;;4.47;;
45408;SDS011;31162;51.076;3.784;2023-07-13T04:44:08;14.50;;;4.00;;
45408;SDS011;31162;51.076;3.784;2023-07-13T04:46:34;14.25;;;4.60;;
45408;SDS011;31162;51.076;3.784;2023-07-13T04:48:59;20.55;;;12.93;;
45408;SDS011;31162;51.076;3.784;2023-07-13T04:51:25;12.38;;;3.75;;
45408;SDS011;31162;51.076;3.784;2023-07-13T04:53:51;10.32;;;3.85;;
45408;SDS011;31162;51.076;3.784;2023-07-13T04:56:17;14.10;;;4.03;;
45408;SDS011;31162;51.076;3.784;2023-07-13T04:58:44;16.15;;;4.55;;
45408;SDS011;31162;51.076;3.784;2023-07-13T05:01:10;12.68;;;3.53;;
45408;SDS011;31162;51.076;3.784;2023-07-13T05:03:36;27.30;;;20.20;;
45408;SDS011;31162;51.076;3.784;2023-07-13T05:06:05;14.20;;;4.43;;
45408;SDS011;31162;51.076;3.784;2023-07-13T05:08:32;13.33;;;3.90;;
45408;SDS011;31162;51.076;3.784;2023-07-13T05:11:02;16.25;;;3.90;;
45408;SDS011;31162;51.076;3.784;2023-07-13T05:13:29;15.83;;;4.53;;
45408;SDS011;31162;51.076;3.784;2023-07-13T05:15:59;11.60;;;3.80;;
45408;SDS011;31162;51.076;3.784;2023-07-13T05:18:26;11.20;;;4.00;;
45408;SDS011;31162;51.076;3.784;2023-07-13T05:21:03;11.70;;;4.07;;
45408;SDS011;31162;51.076;3.784;2023-07-13T05:23:31;13.07;;;3.75;;
45408;SDS011;31162;51.076;3.784;2023-07-13T05:25:57;13.77;;;4.25;;
45408;SDS011;31162;51.076;3.784;2023-07-13T05:28:23;15.75;;;6.93;;
45408;SDS011;31162;51.076;3.784;2023-07-13T05:30:50;16.60;;;4.32;;
45408;SDS011;31162;51.076;3.784;2023-07-13T05:33:15;10.93;;;3.67;;
45408;SDS011;31162;51.076;3.784;2023-07-13T05:35:41;10.60;;;3.88;;
45408;SDS011;31162;51.076;3.784;2023-07-13T05:38:07;9.32;;;3.50;;
45408;SDS011;31162;51.076;3.784;2023-07-13T05:40:33;12.10;;;3.90;;
45408;SDS011;31162;51.076;3.784;2023-07-13T05:42:58;13.40;;;4.45;;
45408;SDS011;31162;51.076;3.784;2023-07-13T05:45:24;13.27;;;3.42;;
45408;SDS011;31162;51.076;3.784;2023-07-13T05:47:51;10.90;;;3.83;;
45408;SDS011;31162;51.076;3.784;2023-07-13T05:50:16;11.90;;;3.63;;
45408;SDS011;31162;51.076;3.784;2023-07-13T05:52:42;11.98;;;4.05;;
45408;SDS011;31162;51.076;3.784;2023-07-13T05:55:08;10.52;;;3.50;;
45408;SDS011;31162;51.076;3.784;2023-07-13T05:57:34;12.15;;;3.60;;
45408;SDS011;31162;51.076;3.784;2023-07-13T05:59:59;12.73;;;3.63;;
45408;SDS011;31162;51.076;3.784;2023-07-13T06:02:25;12.05;;;3.60;;
45408;SDS011;31162;51.076;3.784;2023-07-13T06:04:51;12.18;;;3.45;;
45408;SDS011;31162;51.076;3.784;2023-07-13T06:07:17;12.18;;;3.65;;
45408;SDS011;31162;51.076;3.784;2023-07-13T06:09:42;12.13;;;4.10;;
45408;SDS011;31162;51.076;3.784;2023-07-13T06:12:08;10.25;;;3.50;;
45408;SDS011;31162;51.076;3.784;2023-07-13T06:14:34;13.82;;;3.80;;
45408;SDS011;31162;51.076;3.784;2023-07-13T06:17:00;12.38;;;4.10;;
45408;SDS011;31162;51.076;3.784;2023-07-13T06:19:25;13.35;;;3.83;;
45408;SDS011;31162;51.076;3.784;2023-07-13T06:21:51;11.32;;;3.70;;
45408;SDS011;31162;51.076;3.784;2023-07-13T06:24:17;9.80;;;3.53;;
45408;SDS011;31162;51.076;3.784;2023-07-13T06:26:42;13.15;;;3.70;;
45408;SDS011;31162;51.076;3.784;2023-07-13T06:29:08;10.50;;;3.22;;
45408;SDS011;31162;51.076;3.784;2023-07-13T06:31:34;17.33;;;4.03;;
45408;SDS011;31162;51.076;3.784;2023-07-13T06:33:59;12.88;;;3.58;;
45408;SDS011;31162;51.076;3.784;2023-07-13T06:36:25;12.57;;;3.35;;
45408;SDS011;31162;51.076;3.784;2023-07-13T06:38:50;10.52;;;3.45;;
45408;SDS011;31162;51.076;3.784;2023-07-13T06:41:16;10.85;;;3.42;;
45408;SDS011;31162;51.076;3.784;2023-07-13T06:43:42;9.65;;;3.20;;
45408;SDS011;31162;51.076;3.784;2023-07-13T06:46:07;12.07;;;3.78;;
45408;SDS011;31162;51.076;3.784;2023-07-13T06:48:33;16.75;;;3.78;;
45408;SDS011;31162;51.076;3.784;2023-07-13T06:50:59;11.05;;;3.42;;
45408;SDS011;31162;51.076;3.784;2023-07-13T06:53:24;11.95;;;3.45;;
45408;SDS011;31162;51.076;3.784;2023-07-13T06:55:50;11.82;;;3.67;;
45408;SDS011;31162;51.076;3.784;2023-07-13T06:58:17;12.93;;;3.65;;
45408;SDS011;31162;51.076;3.784;2023-07-13T07:00:43;8.00;;;2.83;;
45408;SDS011;31162;51.076;3.784;2023-07-13T07:03:09;12.10;;;3.28;;
45408;SDS011;31162;51.076;3.784;2023-07-13T07:05:35;11.82;;;3.53;;
45408;SDS011;31162;51.076;3.784;2023-07-13T07:08:00;14.48;;;3.60;;
45408;SDS011;31162;51.076;3.784;2023-07-13T07:10:26;12.32;;;3.38;;
45408;SDS011;31162;51.076;3.784;2023-07-13T07:12:54;8.55;;;3.22;;
45408;SDS011;31162;51.076;3.784;2023-07-13T07:15:19;9.95;;;3.80;;
45408;SDS011;31162;51.076;3.784;2023-07-13T07:17:45;10.52;;;3.30;;
45408;SDS011;31162;51.076;3.784;2023-07-13T07:20:11;8.90;;;2.90;;
45408;SDS011;31162;51.076;3.784;2023-07-13T07:22:37;9.93;;;2.80;;
45408;SDS011;31162;51.076;3.784;2023-07-13T07:25:03;8.27;;;2.72;;
45408;SDS011;31162;51.076;3.784;2023-07-13T07:27:29;8.35;;;2.80;;
45408;SDS011;31162;51.076;3.784;2023-07-13T07:29:54;6.75;;;2.50;;
45408;SDS011;31162;51.076;3.784;2023-07-13T07:32:22;8.75;;;2.70;;
45408;SDS011;31162;51.076;3.784;2023-07-13T07:34:48;9.15;;;2.80;;
45408;SDS011;31162;51.076;3.784;2023-07-13T07:37:14;8.50;;;2.97;;
45408;SDS011;31162;51.076;3.784;2023-07-13T07:39:40;9.35;;;3.05;;
45408;SDS011;31162;51.076;3.784;2023-07-13T07:42:05;9.02;;;2.80;;
45408;SDS011;31162;51.076;3.784;2023-07-13T07:44:32;9.02;;;2.85;;
45408;SDS011;31162;51.076;3.784;2023-07-13T07:46:58;7.75;;;2.70;;
45408;SDS011;31162;51.076;3.784;2023-07-13T07:49:23;6.13;;;2.47;;
45408;SDS011;31162;51.076;3.784;2023-07-13T07:51:49;8.20;;;2.20;;
45408;SDS011;31162;51.076;3.784;2023-07-13T07:54:15;5.60;;;2.38;;
45408;SDS011;31162;51.076;3.784;2023-07-13T07:56:41;6.78;;;2.10;;
45408;SDS011;31162;51.076;3.784;2023-07-13T07:59:07;7.28;;;2.60;;
45408;SDS011;31162;51.076;3.784;2023-07-13T08:01:32;5.55;;;2.15;;
45408;SDS011;31162;51.076;3.784;2023-07-13T08:03:58;5.00;;;1.92;;
45408;SDS011;31162;51.076;3.784;2023-07-13T08:06:23;7.63;;;2.00;;
45408;SDS011;31162;51.076;3.784;2023-07-13T08:08:49;6.68;;;2.17;;
45408;SDS011;31162;51.076;3.784;2023-07-13T08:11:15;7.40;;;2.35;;
45408;SDS011;31162;51.076;3.784;2023-07-13T08:13:41;7.80;;;2.10;;
45408;SDS011;31162;51.076;3.784;2023-07-13T08:16:07;5.63;;;2.42;;
45408;SDS011;31162;51.076;3.784;2023-07-13T08:18:33;6.30;;;2.53;;
45408;SDS011;31162;51.076;3.784;2023-07-13T08:21:02;7.35;;;2.03;;
45408;SDS011;31162;51.076;3.784;2023-07-13T08:23:29;9.13;;;2.30;;
45408;SDS011;31162;51.076;3.784;2023-07-13T08:25:55;6.78;;;2.00;;
45408;SDS011;31162;51.076;3.784;2023-07-13T08:28:21;8.82;;;2.40;;
45408;SDS011;31162;51.076;3.784;2023-07-13T08:30:47;6.35;;;2.28;;
45408;SDS011;31162;51.076;3.784;2023-07-13T08:33:16;6.53;;;2.72;;
45408;SDS011;31162;51.076;3.784;2023-07-13T08:35:47;6.47;;;1.92;;
45408;SDS011;31162;51.076;3.784;2023-07-13T08:38:13;7.50;;;2.28;;
45408;SDS011;31162;51.076;3.784;2023-07-13T08:40:39;5.97;;;1.90;;
45408;SDS011;31162;51.076;3.784;2023-07-13T08:43:07;7.43;;;2.13;;
45408;SDS011;31162;51.076;3.784;2023-07-13T08:45:48;6.23;;;2.47;;
45408;SDS011;31162;51.076;3.784;2023-07-13T08:48:49;6.95;;;2.25;;
45408;SDS011;31162;51.076;3.784;2023-07-13T08:53:50;11.30;;;2.22;;
45408;SDS011;31162;51.076;3.784;2023-07-13T08:56:21;8.73;;;2.30;;
45408;SDS011;31162;51.076;3.784;2023-07-13T08:58:49;5.57;;;1.45;;
45408;SDS011;31162;51.076;3.784;2023-07-13T09:04:08;5.28;;;2.10;;
45408;SDS011;31162;51.076;3.784;2023-07-13T09:11:56;5.80;;;2.00;;
45408;SDS011;31162;51.076;3.784;2023-07-13T09:17:03;6.78;;;1.88;;
45408;SDS011;31162;51.076;3.784;2023-07-13T09:19:35;7.72;;;1.95;;
45408;SDS011;31162;51.076;3.784;2023-07-13T09:22:02;7.75;;;2.40;;
45408;SDS011;31162;51.076;3.784;2023-07-13T09:24:37;6.07;;;2.00;;
45408;SDS011;31162;51.076;3.784;2023-07-13T09:27:17;8.55;;;2.60;;
45408;SDS011;31162;51.076;3.784;2023-07-13T09:29:47;4.63;;;1.92;;
45408;SDS011;31162;51.076;3.784;2023-07-13T09:32:28;18.67;;;2.70;;
45408;SDS011;31162;51.076;3.784;2023-07-13T09:34:54;5.82;;;2.00;;
45408;SDS011;31162;51.076;3.784;2023-07-13T09:37:21;13.02;;;2.47;;
45408;SDS011;31162;51.076;3.784;2023-07-13T09:39:48;4.78;;;2.00;;
45408;SDS011;31162;51.076;3.784;2023-07-13T09:42:16;5.30;;;2.30;;
45408;SDS011;31162;51.076;3.784;2023-07-13T09:47:15;7.97;;;2.10;;
45408;SDS011;31162;51.076;3.784;2023-07-13T09:49:43;6.03;;;2.05;;
45408;SDS011;31162;51.076;3.784;2023-07-13T09:52:12;4.30;;;2.25;;
45408;SDS011;31162;51.076;3.784;2023-07-13T09:54:43;6.47;;;1.90;;
45408;SDS011;31162;51.076;3.784;2023-07-13T09:57:14;3.83;;;1.70;;
45408;SDS011;31162;51.076;3.784;2023-07-13T09:59:49;8.45;;;2.33;;
45408;SDS011;31162;51.076;3.784;2023-07-13T10:04:58;5.80;;;2.25;;
45408;SDS011;31162;51.076;3.784;2023-07-13T10:07:40;7.90;;;2.08;;
45408;SDS011;31162;51.076;3.784;2023-07-13T10:10:22;5.13;;;1.83;;
45408;SDS011;31162;51.076;3.784;2023-07-13T10:12:48;7.57;;;1.90;;
45408;SDS011;31162;51.076;3.784;2023-07-13T10:15:17;7.15;;;1.80;;
45408;SDS011;31162;51.076;3.784;2023-07-13T10:17:45;4.35;;;1.70;;
45408;SDS011;31162;51.076;3.784;2023-07-13T10:20:11;3.85;;;1.60;;
45408;SDS011;31162;51.076;3.784;2023-07-13T10:25:29;5.15;;;1.70;;
45408;SDS011;31162;51.076;3.784;2023-07-13T10:28:03;5.30;;;1.80;;
45408;SDS011;31162;51.076;3.784;2023-07-13T10:30:40;4.00;;;1.75;;
45408;SDS011;31162;51.076;3.784;2023-07-13T10:33:11;5.45;;;1.92;;
45408;SDS011;31162;51.076;3.784;2023-07-13T10:35:38;6.03;;;1.70;;
45408;SDS011;31162;51.076;3.784;2023-07-13T10:38:07;5.93;;;1.98;;
45408;SDS011;31162;51.076;3.784;2023-07-13T10:43:34;5.50;;;2.10;;
45408;SDS011;31162;51.076;3.784;2023-07-13T10:46:03;8.32;;;2.30;;
45408;SDS011;31162;51.076;3.784;2023-07-13T10:48:31;7.28;;;2.45;;
45408;SDS011;31162;51.076;3.784;2023-07-13T10:50:59;4.13;;;2.30;;
45408;SDS011;31162;51.076;3.784;2023-07-13T10:53:35;7.07;;;2.60;;
45408;SDS011;31162;51.076;3.784;2023-07-13T10:56:03;8.13;;;3.90;;
45408;SDS011;31162;51.076;3.784;2023-07-13T10:58:42;6.18;;;2.38;;
45408;SDS011;31162;51.076;3.784;2023-07-13T11:06:41;5.70;;;3.05;;
45408;SDS011;31162;51.076;3.784;2023-07-13T11:12:08;6.13;;;3.25;;
45408;SDS011;31162;51.076;3.784;2023-07-13T11:20:31;7.18;;;3.10;;
45408;SDS011;31162;51.076;3.784;2023-07-13T11:23:15;3.55;;;2.28;;
45408;SDS011;31162;51.076;3.784;2023-07-13T11:25:44;6.22;;;2.78;;
45408;SDS011;31162;51.076;3.784;2023-07-13T11:30:37;6.70;;;2.55;;
45408;SDS011;31162;51.076;3.784;2023-07-13T11:35:40;5.53;;;2.22;;
45408;SDS011;31162;51.076;3.784;2023-07-13T11:38:12;4.22;;;2.28;;
45408;SDS011;31162;51.076;3.784;2023-07-13T11:40:47;3.78;;;2.55;;
45408;SDS011;31162;51.076;3.784;2023-07-13T11:43:15;4.20;;;2.33;;
45408;SDS011;31162;51.076;3.784;2023-07-13T11:45:42;3.97;;;1.95;;
45408;SDS011;31162;51.076;3.784;2023-07-13T11:48:25;4.93;;;2.30;;
45408;SDS011;31162;51.076;3.784;2023-07-13T11:50:57;4.93;;;2.15;;
45408;SDS011;31162;51.076;3.784;2023-07-13T11:53:28;3.58;;;1.92;;
45408;SDS011;31162;51.076;3.784;2023-07-13T11:56:00;4.50;;;2.25;;
45408;SDS011;31162;51.076;3.784;2023-07-13T11:58:26;4.65;;;2.10;;
45408;SDS011;31162;51.076;3.784;2023-07-13T12:00:53;6.35;;;2.25;;
45408;SDS011;31162;51.076;3.784;2023-07-13T12:03:22;5.40;;;2.38;;
45408;SDS011;31162;51.076;3.784;2023-07-13T12:06:00;5.30;;;2.10;;
45408;SDS011;31162;51.076;3.784;2023-07-13T12:08:28;4.05;;;2.40;;
45408;SDS011;31162;51.076;3.784;2023-07-13T12:11:03;48.90;;;44.80;;
45408;SDS011;31162;51.076;3.784;2023-07-13T12:13:34;6.57;;;2.75;;
45408;SDS011;31162;51.076;3.784;2023-07-13T12:16:01;4.95;;;2.33;;
45408;SDS011;31162;51.076;3.784;2023-07-13T12:18:29;4.07;;;2.40;;
45408;SDS011;31162;51.076;3.784;2023-07-13T12:20:57;4.10;;;2.65;;
45408;SDS011;31162;51.076;3.784;2023-07-13T12:25:57;3.92;;;2.25;;
45408;SDS011;31162;51.076;3.784;2023-07-13T12:31:03;4.18;;;2.60;;
45408;SDS011;31162;51.076;3.784;2023-07-13T12:33:30;4.32;;;2.33;;
45408;SDS011;31162;51.076;3.784;2023-07-13T12:35:58;4.93;;;1.90;;
45408;SDS011;31162;51.076;3.784;2023-07-13T12:38:27;4.57;;;2.10;;
45408;SDS011;31162;51.076;3.784;2023-07-13T12:40:53;5.55;;;2.13;;
45408;SDS011;31162;51.076;3.784;2023-07-13T12:43:22;3.75;;;1.80;;
45408;SDS011;31162;51.076;3.784;2023-07-13T12:45:58;3.08;;;1.75;;
45408;SDS011;31162;51.076;3.784;2023-07-13T12:48:26;3.83;;;2.10;;
45408;SDS011;31162;51.076;3.784;2023-07-13T12:50:53;3.33;;;1.80;;
45408;SDS011;31162;51.076;3.784;2023-07-13T12:53:20;5.75;;;1.90;;
45408;SDS011;31162;51.076;3.784;2023-07-13T12:55:57;4.38;;;1.95;;
45408;SDS011;31162;51.076;3.784;2023-07-13T12:58:27;4.25;;;2.17;;
45408;SDS011;31162;51.076;3.784;2023-07-13T13:01:01;4.97;;;1.80;;
45408;SDS011;31162;51.076;3.784;2023-07-13T13:03:33;3.30;;;2.00;;
45408;SDS011;31162;51.076;3.784;2023-07-13T13:06:02;3.88;;;1.70;;
45408;SDS011;31162;51.076;3.784;2023-07-13T13:08:33;4.05;;;2.00;;
45408;SDS011;31162;51.076;3.784;2023-07-13T13:11:00;3.47;;;1.90;;
45408;SDS011;31162;51.076;3.784;2023-07-13T13:13:27;4.05;;;1.98;;
45408;SDS011;31162;51.076;3.784;2023-07-13T13:15:53;4.97;;;2.00;;
45408;SDS011;31162;51.076;3.784;2023-07-13T13:18:19;3.63;;;1.80;;
45408;SDS011;31162;51.076;3.784;2023-07-13T13:20:50;6.90;;;2.05;;
45408;SDS011;31162;51.076;3.784;2023-07-13T13:23:17;3.70;;;1.75;;
45408;SDS011;31162;51.076;3.784;2023-07-13T13:25:48;5.68;;;1.80;;
45408;SDS011;31162;51.076;3.784;2023-07-13T13:28:16;11.48;;;1.88;;
45408;SDS011;31162;51.076;3.784;2023-07-13T13:30:43;7.07;;;1.63;;
45408;SDS011;31162;51.076;3.784;2023-07-13T13:33:11;3.90;;;1.50;;
45408;SDS011;31162;51.076;3.784;2023-07-13T13:35:37;3.80;;;1.83;;
45408;SDS011;31162;51.076;3.784;2023-07-13T13:38:15;4.32;;;1.23;;
45408;SDS011;31162;51.076;3.784;2023-07-13T13:40:45;2.70;;;1.65;;
45408;SDS011;31162;51.076;3.784;2023-07-13T13:43:15;4.43;;;1.67;;
45408;SDS011;31162;51.076;3.784;2023-07-13T13:45:51;4.00;;;1.30;;
45408;SDS011;31162;51.076;3.784;2023-07-13T13:48:18;4.15;;;1.50;;
45408;SDS011;31162;51.076;3.784;2023-07-13T13:50:56;4.70;;;1.40;;
45408;SDS011;31162;51.076;3.784;2023-07-13T13:53:22;2.53;;;1.40;;
45408;SDS011;31162;51.076;3.784;2023-07-13T13:55:48;4.30;;;1.50;;
45408;SDS011;31162;51.076;3.784;2023-07-13T13:58:15;3.17;;;1.45;;
45408;SDS011;31162;51.076;3.784;2023-07-13T14:00:40;13.50;;;3.20;;
45408;SDS011;31162;51.076;3.784;2023-07-13T14:03:19;7.15;;;2.03;;
45408;SDS011;31162;51.076;3.784;2023-07-13T14:05:47;2.65;;;1.10;;
45408;SDS011;31162;51.076;3.784;2023-07-13T14:08:14;3.92;;;1.10;;
45408;SDS011;31162;51.076;3.784;2023-07-13T14:10:42;1.40;;;1.00;;
45408;SDS011;31162;51.076;3.784;2023-07-13T14:13:15;4.05;;;1.23;;
45408;SDS011;31162;51.076;3.784;2023-07-13T14:15:43;4.10;;;1.25;;
45408;SDS011;31162;51.076;3.784;2023-07-13T14:18:09;3.92;;;1.23;;
45408;SDS011;31162;51.076;3.784;2023-07-13T14:20:35;2.65;;;1.90;;
45408;SDS011;31162;51.076;3.784;2023-07-13T14:23:01;2.95;;;1.67;;
45408;SDS011;31162;51.076;3.784;2023-07-13T14:25:26;1.98;;;1.20;;
45408;SDS011;31162;51.076;3.784;2023-07-13T14:27:53;2.83;;;1.58;;
45408;SDS011;31162;51.076;3.784;2023-07-13T14:30:32;1.87;;;1.30;;
45408;SDS011;31162;51.076;3.784;2023-07-13T14:32:58;1.83;;;1.13;;
45408;SDS011;31162;51.076;3.784;2023-07-13T14:35:23;2.28;;;1.63;;
45408;SDS011;31162;51.076;3.784;2023-07-13T14:37:49;3.22;;;1.77;;
45408;SDS011;31162;51.076;3.784;2023-07-13T14:40:16;2.10;;;1.45;;
45408;SDS011;31162;51.076;3.784;2023-07-13T14:42:44;3.33;;;1.40;;
45408;SDS011;31162;51.076;3.784;2023-07-13T14:45:14;3.10;;;1.60;;
45408;SDS011;31162;51.076;3.784;2023-07-13T14:47:41;4.00;;;2.00;;
45408;SDS011;31162;51.076;3.784;2023-07-13T14:50:12;3.08;;;1.20;;
45408;SDS011;31162;51.076;3.784;2023-07-13T14:52:39;1.92;;;1.20;;
45408;SDS011;31162;51.076;3.784;2023-07-13T14:55:08;2.95;;;1.35;;
45408;SDS011;31162;51.076;3.784;2023-07-13T14:57:41;3.78;;;1.23;;
45408;SDS011;31162;51.076;3.784;2023-07-13T15:00:16;4.30;;;1.80;;
45408;SDS011;31162;51.076;3.784;2023-07-13T15:02:48;1.40;;;0.85;;
45408;SDS011;31162;51.076;3.784;2023-07-13T15:05:20;3.80;;;1.88;;
45408;SDS011;31162;51.076;3.784;2023-07-13T15:07:51;4.32;;;1.17;;
45408;SDS011;31162;51.076;3.784;2023-07-13T15:10:19;2.67;;;1.10;;
45408;SDS011;31162;51.076;3.784;2023-07-13T15:12:56;4.05;;;1.85;;
45408;SDS011;31162;51.076;3.784;2023-07-13T15:15:26;3.65;;;1.27;;
45408;SDS011;31162;51.076;3.784;2023-07-13T15:17:53;2.58;;;1.30;;
45408;SDS011;31162;51.076;3.784;2023-07-13T15:20:29;2.70;;;1.33;;
45408;SDS011;31162;51.076;3.784;2023-07-13T15:22:57;2.90;;;1.50;;
45408;SDS011;31162;51.076;3.784;2023-07-13T15:25:25;3.90;;;1.30;;
45408;SDS011;31162;51.076;3.784;2023-07-13T15:27:56;11.50;;;10.27;;
45408;SDS011;31162;51.076;3.784;2023-07-13T15:30:24;4.00;;;1.40;;
45408;SDS011;31162;51.076;3.784;2023-07-13T15:32:52;3.00;;;1.75;;
45408;SDS011;31162;51.076;3.784;2023-07-13T15:35:19;2.75;;;1.23;;
45408;SDS011;31162;51.076;3.784;2023-07-13T15:37:48;2.58;;;1.30;;
45408;SDS011;31162;51.076;3.784;2023-07-13T15:40:15;3.92;;;1.30;;